createdAt,value
2019-03-19T00:00:34.652Z,4.40
2019-03-19T00:01:11.624Z,4.32
2019-03-19T00:01:47.344Z,4.34
2019-03-19T00:02:23.809Z,4.35
2019-03-19T00:02:59.269Z,4.31
2019-03-19T00:03:34.707Z,4.29
2019-03-19T00:04:10.407Z,4.27
2019-03-19T00:04:45.887Z,4.43
2019-03-19T00:05:21.814Z,4.36
2019-03-19T00:05:57.245Z,4.29
2019-03-19T00:06:32.723Z,4.25
2019-03-19T00:07:08.584Z,4.35
2019-03-19T00:07:44.207Z,4.34
2019-03-19T00:08:19.684Z,4.39
2019-03-19T00:08:55.207Z,4.41
2019-03-19T00:09:30.682Z,4.28
2019-03-19T00:10:07.369Z,4.21
2019-03-19T00:10:42.944Z,4.13
2019-03-19T00:11:18.674Z,4.14
2019-03-19T00:11:54.138Z,4.11
2019-03-19T00:12:30.263Z,4.11
2019-03-19T00:13:05.793Z,4.12
2019-03-19T00:13:41.724Z,4.22
2019-03-19T00:14:17.283Z,4.25
2019-03-19T00:14:52.720Z,4.30
2019-03-19T00:15:28.611Z,4.20
2019-03-19T00:16:04.046Z,4.10
2019-03-19T00:16:39.834Z,4.10
2019-03-19T00:17:15.703Z,4.08
2019-03-19T00:17:51.424Z,4.21
2019-03-19T00:18:27.568Z,4.12
2019-03-19T00:19:02.989Z,4.07
2019-03-19T00:19:38.870Z,4.11
2019-03-19T00:20:14.660Z,4.15
2019-03-19T00:20:50.085Z,4.18
2019-03-19T00:21:25.933Z,4.14
2019-03-19T00:22:01.358Z,4.29
2019-03-19T00:22:36.795Z,4.35
2019-03-19T00:23:12.583Z,4.23
2019-03-19T00:23:48.027Z,4.13
2019-03-19T00:24:23.445Z,4.21
2019-03-19T00:24:58.914Z,4.15
2019-03-19T00:25:34.629Z,4.09
2019-03-19T00:26:10.122Z,4.10
2019-03-19T00:26:45.673Z,4.14
2019-03-19T00:27:21.099Z,4.12
2019-03-19T00:27:56.865Z,4.03
2019-03-19T00:28:32.335Z,4.01
2019-03-19T00:29:08.173Z,3.99
2019-03-19T00:29:44.353Z,4.00
2019-03-19T00:30:21.583Z,3.98
2019-03-19T00:30:57.489Z,3.97
2019-03-19T00:31:32.919Z,4.04
2019-03-19T00:32:09.216Z,4.01
2019-03-19T00:32:44.720Z,3.98
2019-03-19T00:33:20.487Z,4.00
2019-03-19T00:33:56.040Z,3.96
2019-03-19T00:34:31.755Z,3.98
2019-03-19T00:35:07.624Z,4.02
2019-03-19T00:35:43.105Z,4.02
2019-03-19T00:36:18.583Z,4.00
2019-03-19T00:36:54.017Z,4.02
2019-03-19T00:37:29.475Z,3.99
2019-03-19T00:38:04.981Z,3.91
2019-03-19T00:38:40.451Z,3.96
2019-03-19T00:39:15.914Z,3.97
2019-03-19T00:39:51.342Z,3.95
2019-03-19T00:40:27.528Z,3.99
2019-03-19T00:41:02.954Z,3.96
2019-03-19T00:41:38.447Z,3.93
2019-03-19T00:42:13.936Z,3.92
2019-03-19T00:42:50.097Z,3.93
2019-03-19T00:43:25.554Z,3.94
2019-03-19T00:44:01.395Z,3.95
2019-03-19T00:44:36.922Z,3.94
2019-03-19T00:45:12.893Z,4.00
2019-03-19T00:45:48.466Z,4.00
2019-03-19T00:46:23.912Z,4.01
2019-03-19T00:46:59.766Z,4.06
2019-03-19T00:47:35.247Z,4.01
2019-03-19T00:48:11.470Z,4.01
2019-03-19T00:48:47.550Z,3.95
2019-03-19T00:49:23.007Z,4.00
2019-03-19T00:49:58.541Z,4.01
2019-03-19T00:50:34.324Z,4.00
2019-03-19T00:51:09.841Z,4.04
2019-03-19T00:51:45.447Z,4.02
2019-03-19T00:52:20.886Z,4.01
2019-03-19T00:52:56.297Z,4.07
2019-03-19T00:53:31.739Z,4.05
2019-03-19T00:54:07.245Z,4.05
2019-03-19T00:54:43.387Z,4.06
2019-03-19T00:55:18.876Z,4.10
2019-03-19T00:55:54.687Z,4.09
2019-03-19T00:56:30.149Z,4.10
2019-03-19T00:57:05.598Z,4.09
2019-03-19T00:57:41.314Z,4.09
2019-03-19T00:58:17.104Z,4.14
2019-03-19T00:58:52.862Z,4.26
2019-03-19T00:59:28.286Z,4.33
2019-03-19T01:00:05.135Z,4.30
2019-03-19T01:00:40.884Z,4.27
2019-03-19T01:01:16.384Z,4.24
2019-03-19T01:01:52.253Z,4.39
2019-03-19T01:02:28.058Z,4.29
2019-03-19T01:03:03.596Z,4.23
2019-03-19T01:03:39.928Z,4.16
2019-03-19T01:04:15.417Z,4.16
2019-03-19T01:04:50.867Z,4.20
2019-03-19T01:05:26.304Z,4.21
2019-03-19T01:06:02.178Z,4.22
2019-03-19T01:06:38.148Z,4.21
2019-03-19T01:07:13.617Z,4.18
2019-03-19T01:07:49.852Z,4.19
2019-03-19T01:08:25.278Z,4.18
2019-03-19T01:09:00.705Z,4.19
2019-03-19T01:09:36.312Z,4.20
2019-03-19T01:10:12.575Z,4.18
2019-03-19T01:10:48.675Z,4.23
2019-03-19T01:11:24.733Z,4.27
2019-03-19T01:12:00.194Z,4.26
2019-03-19T01:12:35.707Z,4.29
2019-03-19T01:13:11.270Z,4.25
2019-03-19T01:13:47.282Z,4.20
2019-03-19T01:14:22.714Z,4.17
2019-03-19T01:14:58.146Z,4.23
2019-03-19T01:15:33.607Z,4.18
2019-03-19T01:16:09.405Z,4.16
2019-03-19T01:16:44.975Z,4.13
2019-03-19T01:17:20.840Z,4.10
2019-03-19T01:17:56.277Z,4.09
2019-03-19T01:18:31.702Z,4.06
2019-03-19T01:19:07.173Z,4.07
2019-03-19T01:19:42.663Z,4.06
2019-03-19T01:20:18.488Z,4.12
2019-03-19T01:20:54.254Z,4.09
2019-03-19T01:21:29.975Z,4.11
2019-03-19T01:22:05.723Z,3.75
2019-03-19T01:22:41.556Z,4.18
2019-03-19T01:23:17.306Z,4.23
2019-03-19T01:23:53.042Z,4.24
2019-03-19T01:24:29.302Z,4.24
2019-03-19T01:25:05.235Z,4.24
2019-03-19T01:25:54.455Z,4.28
2019-03-19T01:26:18.113Z,4.28
2019-03-19T01:26:54.019Z,4.30
2019-03-19T01:27:29.445Z,4.30
2019-03-19T01:28:05.311Z,4.28
2019-03-19T01:28:41.320Z,4.26
2019-03-19T01:29:16.784Z,4.28
2019-03-19T01:29:52.825Z,4.27
2019-03-19T01:30:28.539Z,4.26
2019-03-19T01:31:04.100Z,4.29
2019-03-19T01:31:39.719Z,4.45
2019-03-19T01:32:15.559Z,4.43
2019-03-19T01:32:51.100Z,4.46
2019-03-19T01:33:27.137Z,4.46
2019-03-19T01:34:02.938Z,4.42
2019-03-19T01:34:38.434Z,4.39
2019-03-19T01:35:14.278Z,4.33
2019-03-19T01:35:50.080Z,4.32
2019-03-19T01:36:25.515Z,4.34
2019-03-19T01:37:00.970Z,4.38
2019-03-19T01:37:36.420Z,4.38
2019-03-19T01:38:12.272Z,4.41
2019-03-19T01:38:48.125Z,4.41
2019-03-19T01:39:23.836Z,4.40
2019-03-19T01:39:59.270Z,4.38
2019-03-19T01:40:34.711Z,4.32
2019-03-19T01:41:10.461Z,4.28
2019-03-19T01:41:45.965Z,4.37
2019-03-19T01:42:21.734Z,4.41
2019-03-19T01:42:57.506Z,4.45
2019-03-19T01:43:32.939Z,4.44
2019-03-19T01:44:08.785Z,4.42
2019-03-19T01:44:44.376Z,4.40
2019-03-19T01:45:19.805Z,4.35
2019-03-19T01:45:55.555Z,4.32
2019-03-19T01:46:31.022Z,4.26
2019-03-19T01:47:06.636Z,4.26
2019-03-19T01:47:42.872Z,4.26
2019-03-19T01:48:18.434Z,4.31
2019-03-19T01:48:54.170Z,4.30
2019-03-19T01:49:29.901Z,4.29
2019-03-19T01:50:06.942Z,4.26
2019-03-19T01:50:42.817Z,4.29
2019-03-19T01:51:18.315Z,4.32
2019-03-19T01:51:54.106Z,4.32
2019-03-19T01:52:29.827Z,4.34
2019-03-19T01:53:05.349Z,4.35
2019-03-19T01:53:40.953Z,4.37
2019-03-19T01:54:17.465Z,4.33
2019-03-19T01:54:52.897Z,4.41
2019-03-19T01:55:28.340Z,4.42
2019-03-19T01:56:05.451Z,4.41
2019-03-19T01:56:41.361Z,4.40
2019-03-19T01:57:17.094Z,4.44
2019-03-19T01:57:52.525Z,4.45
2019-03-19T01:58:28.429Z,4.47
2019-03-19T01:59:03.887Z,4.43
2019-03-19T01:59:39.671Z,4.43
2019-03-19T02:00:15.238Z,4.41
2019-03-19T02:00:51.082Z,4.46
2019-03-19T02:01:26.556Z,4.44
2019-03-19T02:02:01.999Z,4.41
2019-03-19T02:02:38.011Z,4.44
2019-03-19T02:03:13.501Z,4.44
2019-03-19T02:03:49.360Z,4.43
2019-03-19T02:04:24.788Z,4.42
2019-03-19T02:05:00.631Z,4.43
2019-03-19T02:05:36.936Z,4.40
2019-03-19T02:06:12.825Z,4.40
2019-03-19T02:06:48.263Z,4.40
2019-03-19T02:07:23.965Z,4.44
2019-03-19T02:07:59.379Z,4.42
2019-03-19T02:08:35.155Z,4.34
2019-03-19T02:09:11.023Z,4.46
2019-03-19T02:09:46.840Z,4.47
2019-03-19T02:10:22.272Z,4.43
2019-03-19T02:10:57.703Z,4.48
2019-03-19T02:11:33.157Z,4.60
2019-03-19T02:12:08.623Z,4.56
2019-03-19T02:12:44.517Z,4.52
2019-03-19T02:13:20.324Z,4.54
2019-03-19T02:13:55.903Z,4.55
2019-03-19T02:14:31.325Z,4.54
2019-03-19T02:15:07.195Z,4.56
2019-03-19T02:15:42.827Z,4.65
2019-03-19T02:16:18.292Z,4.64
2019-03-19T02:16:53.723Z,4.60
2019-03-19T02:17:29.140Z,4.54
2019-03-19T02:18:04.945Z,4.52
2019-03-19T02:18:40.554Z,4.50
2019-03-19T02:19:16.053Z,4.48
2019-03-19T02:19:51.482Z,4.50
2019-03-19T02:20:26.911Z,4.47
2019-03-19T02:21:03.037Z,4.44
2019-03-19T02:21:38.905Z,4.42
2019-03-19T02:22:14.345Z,4.44
2019-03-19T02:22:50.474Z,4.44
2019-03-19T02:23:25.926Z,4.44
2019-03-19T02:24:01.356Z,4.43
2019-03-19T02:24:36.798Z,4.40
2019-03-19T02:25:12.618Z,4.45
2019-03-19T02:25:48.186Z,4.45
2019-03-19T02:26:23.643Z,4.47
2019-03-19T02:26:59.084Z,4.45
2019-03-19T02:27:34.621Z,4.45
2019-03-19T02:28:10.709Z,4.47
2019-03-19T02:28:46.654Z,4.48
2019-03-19T02:29:22.113Z,4.49
2019-03-19T02:29:57.550Z,4.47
2019-03-19T02:30:33.664Z,4.47
2019-03-19T02:31:09.152Z,4.46
2019-03-19T02:31:45.011Z,4.47
2019-03-19T02:32:20.460Z,4.48
2019-03-19T02:32:55.885Z,4.44
2019-03-19T02:33:31.351Z,4.47
2019-03-19T02:34:06.804Z,4.48
2019-03-19T02:34:42.468Z,4.51
2019-03-19T02:35:17.964Z,4.52
2019-03-19T02:35:53.447Z,4.49
2019-03-19T02:36:29.321Z,4.50
2019-03-19T02:37:05.092Z,4.50
2019-03-19T02:37:40.576Z,4.50
2019-03-19T02:38:16.813Z,4.50
2019-03-19T02:38:52.253Z,4.53
2019-03-19T02:39:28.044Z,4.56
2019-03-19T02:40:03.513Z,4.57
2019-03-19T02:40:39.096Z,4.56
2019-03-19T02:41:14.584Z,4.54
2019-03-19T02:41:50.086Z,4.54
2019-03-19T02:42:25.509Z,4.52
2019-03-19T02:43:00.946Z,4.52
2019-03-19T02:43:36.396Z,4.53
2019-03-19T02:44:11.912Z,4.57
2019-03-19T02:44:47.699Z,4.54
2019-03-19T02:45:23.531Z,4.54
2019-03-19T02:45:59.087Z,4.51
2019-03-19T02:46:34.534Z,4.52
2019-03-19T02:47:10.362Z,4.49
2019-03-19T02:47:45.858Z,4.50
2019-03-19T02:48:21.270Z,4.49
2019-03-19T02:48:56.716Z,4.52
2019-03-19T02:49:32.133Z,4.50
2019-03-19T02:50:08.591Z,4.51
2019-03-19T02:50:44.147Z,4.50
2019-03-19T02:51:19.572Z,4.50
2019-03-19T02:51:55.011Z,4.51
2019-03-19T02:52:30.439Z,4.54
2019-03-19T02:53:05.951Z,4.56
2019-03-19T02:53:41.762Z,4.55
2019-03-19T02:54:17.578Z,4.56
2019-03-19T02:54:53.001Z,4.57
2019-03-19T02:55:28.771Z,4.55
2019-03-19T02:56:04.208Z,4.57
2019-03-19T02:56:39.706Z,4.60
2019-03-19T02:57:15.227Z,4.69
2019-03-19T02:57:51.100Z,4.67
2019-03-19T02:58:26.529Z,4.61
2019-03-19T02:59:01.968Z,4.59
2019-03-19T02:59:37.849Z,4.60
2019-03-19T03:00:13.870Z,4.53
2019-03-19T03:00:49.691Z,4.53
2019-03-19T03:01:25.173Z,4.55
2019-03-19T03:02:01.042Z,4.57
2019-03-19T03:02:36.594Z,4.51
2019-03-19T03:03:12.369Z,4.52
2019-03-19T03:03:48.247Z,4.52
2019-03-19T03:04:23.761Z,4.53
2019-03-19T03:04:59.224Z,4.46
2019-03-19T03:05:34.670Z,4.52
2019-03-19T03:06:10.456Z,4.49
2019-03-19T03:06:45.986Z,4.53
2019-03-19T03:07:21.417Z,4.57
2019-03-19T03:07:56.870Z,4.52
2019-03-19T03:08:32.438Z,4.53
2019-03-19T03:09:08.436Z,4.59
2019-03-19T03:09:43.925Z,4.57
2019-03-19T03:10:19.734Z,4.51
2019-03-19T03:10:55.188Z,4.47
2019-03-19T03:11:30.986Z,4.49
2019-03-19T03:12:06.448Z,4.42
2019-03-19T03:12:42.020Z,4.35
2019-03-19T03:13:17.548Z,4.34
2019-03-19T03:13:53.369Z,4.34
2019-03-19T03:14:29.173Z,4.31
2019-03-19T03:15:04.783Z,4.29
2019-03-19T03:15:40.219Z,4.28
2019-03-19T03:16:15.688Z,4.28
2019-03-19T03:16:51.254Z,4.23
2019-03-19T03:17:26.954Z,4.22
2019-03-19T03:18:02.406Z,4.19
2019-03-19T03:18:37.870Z,4.19
2019-03-19T03:19:13.676Z,4.18
2019-03-19T03:19:49.140Z,4.23
2019-03-19T03:20:24.927Z,4.20
2019-03-19T03:21:00.379Z,4.14
2019-03-19T03:21:36.121Z,4.11
2019-03-19T03:22:11.661Z,4.10
2019-03-19T03:22:47.122Z,4.07
2019-03-19T03:23:22.958Z,4.06
2019-03-19T03:23:58.833Z,4.07
2019-03-19T03:24:34.509Z,4.07
2019-03-19T03:25:10.076Z,4.11
2019-03-19T03:25:45.623Z,4.09
2019-03-19T03:26:21.105Z,4.35
2019-03-19T03:26:56.589Z,4.18
2019-03-19T03:27:32.109Z,4.14
2019-03-19T03:28:07.543Z,4.20
2019-03-19T03:28:43.079Z,4.10
2019-03-19T03:29:19.496Z,4.01
2019-03-19T03:29:55.020Z,3.95
2019-03-19T03:30:30.473Z,3.92
2019-03-19T03:31:06.298Z,3.84
2019-03-19T03:31:41.805Z,3.78
2019-03-19T03:32:17.384Z,3.74
2019-03-19T03:32:52.844Z,3.74
2019-03-19T03:33:28.741Z,3.74
2019-03-19T03:34:04.368Z,3.70
2019-03-19T03:34:39.812Z,3.66
2019-03-19T03:35:15.273Z,3.62
2019-03-19T03:35:51.348Z,3.60
2019-03-19T03:36:26.777Z,3.62
2019-03-19T03:37:03.036Z,3.64
2019-03-19T03:37:38.876Z,3.60
2019-03-19T03:38:14.710Z,3.62
2019-03-19T03:38:50.265Z,3.58
2019-03-19T03:39:25.718Z,3.70
2019-03-19T03:40:01.239Z,3.86
2019-03-19T03:40:36.642Z,3.71
2019-03-19T03:41:12.512Z,3.69
2019-03-19T03:41:47.994Z,3.64
2019-03-19T03:42:23.441Z,3.57
2019-03-19T03:42:58.882Z,3.59
2019-03-19T03:43:34.409Z,3.61
2019-03-19T03:44:09.850Z,3.59
2019-03-19T03:44:45.774Z,3.55
2019-03-19T03:45:21.869Z,3.56
2019-03-19T03:45:57.317Z,3.57
2019-03-19T03:46:33.328Z,3.53
2019-03-19T03:47:08.766Z,3.51
2019-03-19T03:47:44.354Z,3.54
2019-03-19T03:48:19.800Z,3.51
2019-03-19T03:48:55.309Z,3.52
2019-03-19T03:49:30.764Z,3.49
2019-03-19T03:50:06.604Z,3.50
2019-03-19T03:50:42.218Z,3.49
2019-03-19T03:51:17.727Z,3.49
2019-03-19T03:51:53.156Z,3.44
2019-03-19T03:52:28.587Z,3.44
2019-03-19T03:53:04.529Z,3.52
2019-03-19T03:53:39.994Z,3.43
2019-03-19T03:54:15.870Z,3.52
2019-03-19T03:54:51.316Z,3.44
2019-03-19T03:55:26.775Z,3.39
2019-03-19T03:56:02.485Z,3.37
2019-03-19T03:56:38.390Z,3.34
2019-03-19T03:57:14.198Z,3.33
2019-03-19T03:57:49.660Z,3.32
2019-03-19T03:58:25.593Z,3.29
2019-03-19T03:59:01.544Z,3.26
2019-03-19T03:59:37.369Z,3.26
2019-03-19T04:00:13.911Z,3.29
2019-03-19T04:00:49.351Z,3.28
2019-03-19T04:01:25.069Z,3.30
2019-03-19T04:02:00.503Z,3.29
2019-03-19T04:02:36.049Z,3.27
2019-03-19T04:03:11.856Z,3.25
2019-03-19T04:03:47.437Z,3.20
2019-03-19T04:04:23.268Z,3.19
2019-03-19T04:04:58.861Z,3.19
2019-03-19T04:05:34.340Z,3.19
2019-03-19T04:06:10.081Z,3.17
2019-03-19T04:06:45.903Z,3.20
2019-03-19T04:07:21.344Z,3.17
2019-03-19T04:07:57.594Z,3.18
2019-03-19T04:08:33.084Z,3.12
2019-03-19T04:09:09.394Z,3.15
2019-03-19T04:09:45.168Z,3.15
2019-03-19T04:10:20.626Z,3.16
2019-03-19T04:10:56.047Z,3.13
2019-03-19T04:11:31.821Z,3.13
2019-03-19T04:12:07.285Z,3.14
2019-03-19T04:12:42.764Z,3.10
2019-03-19T04:13:18.261Z,3.06
2019-03-19T04:13:53.702Z,3.10
2019-03-19T04:14:29.127Z,3.09
2019-03-19T04:15:04.928Z,3.10
2019-03-19T04:15:40.450Z,3.09
2019-03-19T04:16:15.989Z,3.01
2019-03-19T04:16:51.447Z,3.09
2019-03-19T04:17:27.292Z,3.05
2019-03-19T04:18:03.175Z,3.07
2019-03-19T04:18:39.373Z,3.08
2019-03-19T04:19:14.871Z,3.07
2019-03-19T04:19:50.405Z,3.08
2019-03-19T04:20:25.910Z,3.05
2019-03-19T04:21:01.775Z,3.02
2019-03-19T04:21:37.303Z,3.05
2019-03-19T04:22:15.763Z,3.05
2019-03-19T04:22:49.982Z,3.04
2019-03-19T04:23:25.774Z,3.02
2019-03-19T04:24:01.213Z,3.01
2019-03-19T04:24:36.670Z,2.99
2019-03-19T04:25:12.654Z,3.01
2019-03-19T04:25:48.464Z,3.01
2019-03-19T04:26:23.904Z,2.98
2019-03-19T04:26:59.464Z,2.98
2019-03-19T04:27:35.166Z,3.03
2019-03-19T04:28:12.080Z,3.01
2019-03-19T04:28:51.465Z,3.02
2019-03-19T04:29:26.906Z,3.03
2019-03-19T04:30:02.768Z,2.96
2019-03-19T04:30:38.722Z,2.94
2019-03-19T04:31:14.300Z,2.91
2019-03-19T04:31:49.785Z,2.90
2019-03-19T04:32:25.262Z,2.88
2019-03-19T04:33:00.847Z,2.85
2019-03-19T04:33:36.351Z,2.80
2019-03-19T04:34:12.224Z,2.80
2019-03-19T04:34:48.071Z,2.71
2019-03-19T04:35:23.515Z,2.69
2019-03-19T04:35:58.978Z,2.69
2019-03-19T04:36:34.764Z,2.67
2019-03-19T04:37:10.226Z,2.67
2019-03-19T04:37:45.712Z,2.87
2019-03-19T04:38:21.161Z,2.85
2019-03-19T04:38:57.182Z,2.81
2019-03-19T04:39:33.421Z,2.78
2019-03-19T04:40:10.321Z,2.73
2019-03-19T04:40:46.243Z,2.72
2019-03-19T04:41:21.717Z,2.78
2019-03-19T04:41:57.274Z,2.80
2019-03-19T04:42:32.838Z,2.80
2019-03-19T04:43:08.266Z,2.91
2019-03-19T04:43:44.241Z,2.91
2019-03-19T04:44:20.022Z,2.97
2019-03-19T04:44:55.755Z,2.85
2019-03-19T04:45:32.214Z,2.83
2019-03-19T04:46:08.362Z,2.79
2019-03-19T04:46:44.546Z,2.73
2019-03-19T04:47:20.254Z,2.71
2019-03-19T04:47:55.915Z,2.68
2019-03-19T04:48:31.750Z,2.64
2019-03-19T04:49:07.676Z,2.63
2019-03-19T04:49:43.543Z,2.67
2019-03-19T04:50:19.047Z,2.61
2019-03-19T04:50:54.532Z,2.56
2019-03-19T04:51:29.974Z,2.55
2019-03-19T04:52:05.774Z,2.55
2019-03-19T04:52:41.538Z,2.53
2019-03-19T04:53:17.039Z,2.56
2019-03-19T04:53:53.240Z,2.56
2019-03-19T04:54:29.040Z,2.51
2019-03-19T04:55:05.808Z,2.50
2019-03-19T04:55:41.559Z,2.49
2019-03-19T04:56:17.760Z,2.46
2019-03-19T04:56:53.585Z,2.47
2019-03-19T04:57:29.024Z,2.45
2019-03-19T04:58:04.816Z,2.49
2019-03-19T04:58:40.616Z,2.54
2019-03-19T04:59:16.495Z,2.54
2019-03-19T04:59:51.972Z,2.48
2019-03-19T05:00:27.732Z,2.53
2019-03-19T05:01:03.158Z,2.52
2019-03-19T05:01:38.621Z,2.47
2019-03-19T05:02:14.397Z,2.47
2019-03-19T05:02:49.917Z,2.47
2019-03-19T05:03:26.074Z,2.45
2019-03-19T05:04:01.509Z,2.41
2019-03-19T05:04:37.368Z,2.42
2019-03-19T05:05:14.432Z,2.42
2019-03-19T05:05:50.833Z,2.45
2019-03-19T05:06:26.685Z,2.45
2019-03-19T05:07:02.581Z,2.46
2019-03-19T05:07:38.208Z,2.44
2019-03-19T05:08:13.978Z,2.44
2019-03-19T05:08:49.443Z,2.43
2019-03-19T05:09:25.650Z,2.48
2019-03-19T05:10:01.382Z,2.42
2019-03-19T05:10:36.849Z,2.42
2019-03-19T05:11:12.319Z,2.42
2019-03-19T05:11:48.087Z,2.46
2019-03-19T05:12:23.643Z,2.40
2019-03-19T05:13:00.808Z,2.46
2019-03-19T05:13:36.645Z,2.44
2019-03-19T05:14:12.551Z,2.43
2019-03-19T05:14:48.043Z,2.43
2019-03-19T05:15:23.523Z,2.41
2019-03-19T05:15:59.158Z,2.38
2019-03-19T05:16:34.714Z,2.41
2019-03-19T05:17:10.474Z,2.39
2019-03-19T05:17:46.389Z,2.41
2019-03-19T05:18:21.872Z,2.39
2019-03-19T05:18:57.647Z,2.42
2019-03-19T05:19:33.153Z,2.44
2019-03-19T05:20:09.463Z,2.44
2019-03-19T05:20:45.076Z,2.42
2019-03-19T05:21:20.893Z,2.39
2019-03-19T05:21:56.384Z,2.43
2019-03-19T05:22:31.906Z,2.42
2019-03-19T05:23:07.890Z,2.36
2019-03-19T05:23:43.342Z,2.38
2019-03-19T05:24:18.793Z,2.37
2019-03-19T05:24:54.591Z,2.31
2019-03-19T05:25:30.039Z,2.34
2019-03-19T05:26:05.512Z,2.48
2019-03-19T05:26:41.047Z,2.55
2019-03-19T05:27:16.895Z,2.46
2019-03-19T05:27:52.458Z,2.43
2019-03-19T05:28:27.959Z,2.33
2019-03-19T05:29:03.428Z,2.35
2019-03-19T05:29:38.944Z,2.31
2019-03-19T05:30:14.482Z,2.38
2019-03-19T05:30:49.970Z,2.41
2019-03-19T05:31:25.703Z,2.37
2019-03-19T05:32:01.153Z,2.51
2019-03-19T05:32:36.612Z,2.49
2019-03-19T05:33:12.486Z,2.42
2019-03-19T05:33:47.996Z,2.40
2019-03-19T05:34:23.427Z,2.33
2019-03-19T05:34:58.922Z,2.32
2019-03-19T05:35:34.378Z,2.30
2019-03-19T05:36:10.084Z,2.31
2019-03-19T05:36:46.350Z,2.28
2019-03-19T05:37:21.774Z,2.25
2019-03-19T05:37:57.263Z,2.28
2019-03-19T05:38:32.743Z,2.31
2019-03-19T05:39:08.611Z,2.29
2019-03-19T05:39:44.113Z,2.28
2019-03-19T05:40:22.342Z,2.26
2019-03-19T05:40:58.068Z,2.28
2019-03-19T05:41:33.948Z,2.27
2019-03-19T05:42:09.381Z,2.31
2019-03-19T05:42:45.057Z,2.28
2019-03-19T05:43:20.518Z,2.30
2019-03-19T05:43:56.261Z,2.33
2019-03-19T05:44:31.696Z,2.33
2019-03-19T05:45:09.433Z,2.32
2019-03-19T05:45:45.227Z,2.35
2019-03-19T05:46:20.684Z,2.36
2019-03-19T05:46:56.145Z,2.36
2019-03-19T05:47:37.333Z,2.37
2019-03-19T05:48:09.622Z,2.41
2019-03-19T05:48:45.421Z,2.44
2019-03-19T05:49:21.304Z,2.43
2019-03-19T05:49:57.056Z,2.39
2019-03-19T05:50:32.492Z,2.38
2019-03-19T05:51:07.964Z,2.35
2019-03-19T05:51:43.601Z,2.32
2019-03-19T05:52:19.284Z,2.31
2019-03-19T05:52:54.728Z,2.27
2019-03-19T05:53:30.185Z,2.32
2019-03-19T05:54:05.931Z,2.39
2019-03-19T05:54:41.386Z,2.41
2019-03-19T05:55:17.059Z,2.35
2019-03-19T05:55:52.617Z,2.37
2019-03-19T05:56:28.515Z,2.35
2019-03-19T05:57:04.710Z,2.39
2019-03-19T05:57:49.505Z,2.37
2019-03-19T05:58:18.122Z,2.39
2019-03-19T05:58:53.575Z,2.43
2019-03-19T05:59:29.010Z,2.37
2019-03-19T06:00:05.257Z,2.41
2019-03-19T06:00:40.702Z,2.44
2019-03-19T06:01:16.191Z,2.48
2019-03-19T06:01:51.674Z,2.46
2019-03-19T06:02:27.547Z,2.46
2019-03-19T06:03:03.238Z,2.46
2019-03-19T06:03:39.530Z,2.51
2019-03-19T06:04:15.451Z,2.50
2019-03-19T06:04:51.127Z,2.52
2019-03-19T06:05:26.957Z,2.51
2019-03-19T06:06:03.176Z,2.53
2019-03-19T06:06:39.058Z,2.51
2019-03-19T06:07:14.525Z,2.54
2019-03-19T06:07:50.311Z,2.57
2019-03-19T06:08:25.751Z,2.55
2019-03-19T06:09:01.194Z,2.57
2019-03-19T06:09:36.641Z,2.59
2019-03-19T06:10:12.782Z,2.62
2019-03-19T06:10:48.617Z,2.62
2019-03-19T06:11:24.098Z,2.65
2019-03-19T06:12:00.301Z,2.73
2019-03-19T06:12:35.735Z,2.73
2019-03-19T06:13:11.198Z,2.75
2019-03-19T06:13:46.768Z,2.73
2019-03-19T06:14:22.265Z,2.69
2019-03-19T06:14:57.725Z,2.72
2019-03-19T06:15:33.495Z,2.67
2019-03-19T06:16:09.941Z,2.67
2019-03-19T06:16:45.602Z,2.69
2019-03-19T06:17:21.114Z,2.67
2019-03-19T06:17:56.549Z,2.74
2019-03-19T06:18:35.307Z,2.69
2019-03-19T06:19:09.131Z,2.70
2019-03-19T06:19:45.639Z,2.73
2019-03-19T06:20:21.135Z,2.78
2019-03-19T06:20:56.702Z,2.84
2019-03-19T06:21:32.135Z,2.83
2019-03-19T06:22:07.568Z,2.83
2019-03-19T06:22:43.571Z,2.83
2019-03-19T06:23:19.047Z,2.88
2019-03-19T06:23:54.473Z,2.89
2019-03-19T06:24:30.733Z,2.87
2019-03-19T06:25:06.696Z,2.87
2019-03-19T06:25:42.842Z,2.91
2019-03-19T06:26:18.768Z,2.84
2019-03-19T06:26:54.517Z,2.85
2019-03-19T06:27:30.274Z,2.85
2019-03-19T06:28:06.405Z,2.91
2019-03-19T06:28:42.377Z,2.92
2019-03-19T06:29:17.882Z,2.87
2019-03-19T06:29:53.650Z,2.88
2019-03-19T06:30:29.137Z,2.87
2019-03-19T06:31:04.985Z,2.83
2019-03-19T06:31:40.542Z,2.98
2019-03-19T06:32:16.033Z,3.02
2019-03-19T06:32:51.627Z,2.97
2019-03-19T06:33:27.105Z,2.93
2019-03-19T06:34:02.596Z,3.09
2019-03-19T06:34:38.384Z,3.11
2019-03-19T06:35:13.952Z,3.03
2019-03-19T06:35:49.581Z,3.03
2019-03-19T06:36:24.970Z,2.98
2019-03-19T06:37:00.418Z,3.02
2019-03-19T06:37:35.871Z,3.08
2019-03-19T06:38:11.666Z,3.05
2019-03-19T06:38:47.310Z,3.10
2019-03-19T06:39:22.809Z,3.17
2019-03-19T06:39:58.273Z,3.31
2019-03-19T06:40:34.106Z,3.26
2019-03-19T06:41:09.583Z,3.23
2019-03-19T06:41:45.222Z,3.21
2019-03-19T06:42:20.711Z,3.18
2019-03-19T06:42:56.669Z,3.15
2019-03-19T06:43:32.098Z,3.13
2019-03-19T06:44:07.530Z,3.11
2019-03-19T06:44:43.309Z,3.13
2019-03-19T06:45:19.538Z,3.22
2019-03-19T06:45:55.428Z,3.19
2019-03-19T06:46:30.924Z,3.21
2019-03-19T06:47:06.738Z,3.18
2019-03-19T06:47:42.254Z,3.20
2019-03-19T06:48:17.847Z,3.19
2019-03-19T06:48:53.764Z,3.18
2019-03-19T06:49:29.239Z,3.19
2019-03-19T06:50:05.621Z,3.19
2019-03-19T06:50:45.547Z,3.24
2019-03-19T06:51:19.243Z,3.26
2019-03-19T06:51:54.724Z,3.28
2019-03-19T06:52:30.475Z,3.27
2019-03-19T06:53:06.447Z,3.27
2019-03-19T06:53:42.411Z,3.28
2019-03-19T06:54:18.195Z,3.28
2019-03-19T06:54:54.082Z,3.25
2019-03-19T06:55:29.561Z,3.27
2019-03-19T06:56:05.220Z,3.25
2019-03-19T06:56:41.194Z,3.26
2019-03-19T06:57:17.123Z,3.30
2019-03-19T06:57:52.568Z,3.32
2019-03-19T06:58:28.282Z,3.33
2019-03-19T06:59:03.745Z,3.35
2019-03-19T06:59:39.548Z,3.35
2019-03-19T07:00:19.607Z,3.38
2019-03-19T07:00:55.340Z,3.45
2019-03-19T07:01:31.074Z,3.46
2019-03-19T07:02:07.194Z,3.48
2019-03-19T07:02:42.654Z,3.56
2019-03-19T07:03:18.150Z,3.60
2019-03-19T07:03:53.943Z,3.63
2019-03-19T07:04:29.675Z,3.68
2019-03-19T07:05:06.652Z,3.73
2019-03-19T07:05:42.513Z,3.80
2019-03-19T07:06:18.487Z,3.78
2019-03-19T07:06:54.210Z,3.77
2019-03-19T07:07:29.746Z,3.78
2019-03-19T07:08:05.868Z,3.85
2019-03-19T07:08:41.443Z,3.87
2019-03-19T07:09:17.619Z,3.90
2019-03-19T07:09:53.424Z,3.86
2019-03-19T07:10:29.238Z,3.82
2019-03-19T07:11:05.093Z,3.80
2019-03-19T07:11:40.877Z,3.81
2019-03-19T07:12:16.558Z,3.86
2019-03-19T07:12:52.003Z,3.87
2019-03-19T07:13:27.488Z,3.87
2019-03-19T07:14:03.272Z,3.89
2019-03-19T07:14:38.741Z,3.90
2019-03-19T07:15:15.275Z,3.93
2019-03-19T07:15:50.811Z,3.89
2019-03-19T07:16:26.546Z,3.88
2019-03-19T07:17:02.472Z,4.03
2019-03-19T07:17:37.906Z,4.08
2019-03-19T07:18:13.828Z,4.06
2019-03-19T07:18:49.736Z,4.07
2019-03-19T07:19:25.201Z,4.09
2019-03-19T07:20:00.654Z,4.11
2019-03-19T07:20:36.730Z,4.08
2019-03-19T07:21:12.576Z,4.07
2019-03-19T07:21:48.467Z,4.14
2019-03-19T07:22:24.196Z,4.14
2019-03-19T07:22:59.646Z,4.21
2019-03-19T07:23:35.544Z,4.25
2019-03-19T07:24:10.970Z,4.29
2019-03-19T07:24:48.108Z,4.28
2019-03-19T07:25:23.875Z,4.28
2019-03-19T07:25:59.344Z,4.34
2019-03-19T07:26:35.468Z,4.39
2019-03-19T07:27:10.939Z,4.47
2019-03-19T07:27:46.440Z,4.44
2019-03-19T07:28:22.597Z,4.41
2019-03-19T07:28:58.080Z,4.45
2019-03-19T07:29:33.548Z,4.47
2019-03-19T07:30:12.399Z,4.52
2019-03-19T07:30:48.142Z,4.53
2019-03-19T07:31:30.684Z,4.58
2019-03-19T07:32:00.703Z,4.59
2019-03-19T07:32:36.470Z,4.64
2019-03-19T07:33:11.929Z,4.65
2019-03-19T07:33:47.788Z,4.63
2019-03-19T07:34:23.303Z,4.63
2019-03-19T07:34:58.774Z,4.61
2019-03-19T07:35:34.290Z,4.57
2019-03-19T07:36:09.798Z,4.59
2019-03-19T07:36:46.462Z,4.57
2019-03-19T07:37:22.011Z,4.59
2019-03-19T07:37:57.464Z,4.58
2019-03-19T07:38:33.605Z,4.58
2019-03-19T07:39:09.736Z,4.65
2019-03-19T07:39:45.219Z,4.70
2019-03-19T07:40:21.003Z,4.73
2019-03-19T07:40:56.925Z,4.78
2019-03-19T07:41:32.484Z,4.81
2019-03-19T07:42:07.929Z,4.75
2019-03-19T07:42:43.759Z,4.75
2019-03-19T07:43:19.407Z,4.77
2019-03-19T07:43:54.927Z,4.82
2019-03-19T07:44:30.498Z,4.80
2019-03-19T07:45:07.058Z,4.83
2019-03-19T07:45:42.633Z,4.86
2019-03-19T07:46:18.314Z,4.86
2019-03-19T07:46:53.816Z,4.84
2019-03-19T07:47:29.600Z,4.76
2019-03-19T07:48:05.100Z,4.74
2019-03-19T07:48:40.518Z,4.80
2019-03-19T07:49:16.118Z,4.94
2019-03-19T07:49:51.713Z,4.95
2019-03-19T07:50:27.166Z,5.00
2019-03-19T07:51:02.633Z,4.99
2019-03-19T07:51:38.335Z,5.03
2019-03-19T07:52:13.968Z,5.02
2019-03-19T07:52:49.483Z,5.06
2019-03-19T07:53:25.297Z,5.14
2019-03-19T07:54:00.745Z,5.20
2019-03-19T07:54:37.376Z,5.23
2019-03-19T07:55:13.498Z,5.23
2019-03-19T07:55:49.040Z,5.23